Time;durP1;ratioP1;P1;durP2;ratioP2;P2;SDS_P1;SDS_P2;PMS_P1;PMS_P2;Temp;Humidity;BMP_temperature;BMP_pressure;BME280_temperature;BME280_humidity;BME280_pressure;Samples;Min_cycle;Max_cycle;Signal;HPM_P1;HPM_P2
2024/01/10 00:01:37;;;;;;;33.40;4.82;;;;;;;;;;5070661;28;20028;-39
2024/01/10 00:04:05;;;;;;;33.20;4.50;;;;;;;;;;5071870;28;20040;-41
2024/01/10 00:06:32;;;;;;;28.90;4.72;;;;;;;;;;5068193;28;20322;-39
2024/01/10 00:08:59;;;;;;;29.35;4.43;;;;;;;;;;5071592;28;20021;-39
2024/01/10 00:11:26;;;;;;;26.13;4.53;;;;;;;;;;5071176;28;20110;-41
2024/01/10 00:13:59;;;;;;;24.63;3.95;;;;;;;;;;5071202;28;20107;-39
2024/01/10 00:16:27;;;;;;;29.17;4.05;;;;;;;;;;5066445;28;20044;-38
2024/01/10 00:21:58;;;;;;;21.83;3.25;;;;;;;;;;5074995;28;20040;-38
2024/01/10 00:24:25;;;;;;;28.25;3.95;;;;;;;;;;5074885;28;20040;-37
2024/01/10 00:26:52;;;;;;;22.88;4.40;;;;;;;;;;5074077;28;20040;-38
2024/01/10 00:29:19;;;;;;;27.65;3.95;;;;;;;;;;5075064;28;20421;-39
2024/01/10 00:31:46;;;;;;;25.63;3.55;;;;;;;;;;5074823;28;20071;-39
2024/01/10 00:34:13;;;;;;;25.67;3.67;;;;;;;;;;5067154;28;20386;-37
2024/01/10 00:36:40;;;;;;;16.63;3.70;;;;;;;;;;5067457;28;20106;-38
2024/01/10 00:39:07;;;;;;;22.20;3.15;;;;;;;;;;5072318;28;20162;-40
2024/01/10 00:41:34;;;;;;;23.33;3.35;;;;;;;;;;5071761;28;20070;-42
2024/01/10 00:44:01;;;;;;;21.60;3.38;;;;;;;;;;5072042;28;20024;-39
2024/01/10 00:46:28;;;;;;;20.02;2.63;;;;;;;;;;5073531;28;20145;-38
2024/01/10 00:48:55;;;;;;;16.00;2.30;;;;;;;;;;5073788;28;20035;-39
2024/01/10 00:51:22;;;;;;;14.73;2.83;;;;;;;;;;5070906;28;20037;-40
2024/01/10 00:53:49;;;;;;;12.77;2.38;;;;;;;;;;5070274;28;20039;-39
2024/01/10 00:56:16;;;;;;;20.55;2.45;;;;;;;;;;5069121;28;20478;-39
2024/01/10 00:58:43;;;;;;;15.43;2.17;;;;;;;;;;5066110;28;20025;-39
2024/01/10 01:01:10;;;;;;;16.23;2.47;;;;;;;;;;5069773;28;20094;-40
2024/01/10 01:03:37;;;;;;;18.55;1.83;;;;;;;;;;5070197;28;20024;-40
2024/01/10 01:06:04;;;;;;;14.90;1.77;;;;;;;;;;5072494;28;20021;-39
2024/01/10 01:08:31;;;;;;;11.50;1.50;;;;;;;;;;5068234;28;20422;-38
2024/01/10 01:10:58;;;;;;;9.48;1.60;;;;;;;;;;5069394;28;20482;-39
2024/01/10 01:13:25;;;;;;;17.20;2.53;;;;;;;;;;5070447;28;20036;-38
2024/01/10 01:15:53;;;;;;;15.02;2.78;;;;;;;;;;5072313;28;20099;-39
2024/01/10 01:18:20;;;;;;;10.10;2.20;;;;;;;;;;5062937;28;20032;-41
2024/01/10 01:20:48;;;;;;;12.48;1.92;;;;;;;;;;5070754;28;20029;-40
2024/01/10 01:23:16;;;;;;;10.70;2.03;;;;;;;;;;5073059;28;20486;-40
2024/01/10 01:25:43;;;;;;;16.08;2.33;;;;;;;;;;5072229;28;20044;-40
2024/01/10 01:28:10;;;;;;;9.13;2.13;;;;;;;;;;5072769;28;20028;-39
2024/01/10 01:30:39;;;;;;;13.18;2.20;;;;;;;;;;5072314;28;20051;-40
2024/01/10 01:33:06;;;;;;;9.15;2.08;;;;;;;;;;5072547;28;20549;-40
2024/01/10 01:35:33;;;;;;;14.85;2.30;;;;;;;;;;5072576;28;20072;-40
2024/01/10 01:38:00;;;;;;;14.13;2.13;;;;;;;;;;5072108;28;20032;-40
2024/01/10 01:40:27;;;;;;;11.10;1.77;;;;;;;;;;5071262;28;20028;-40
2024/01/10 01:42:54;;;;;;;15.52;1.45;;;;;;;;;;5070789;28;20035;-40
2024/01/10 01:45:21;;;;;;;8.27;1.65;;;;;;;;;;5072475;28;20036;-40
2024/01/10 01:47:48;;;;;;;10.98;1.50;;;;;;;;;;5072487;28;20036;-39
2024/01/10 01:50:15;;;;;;;8.77;1.70;;;;;;;;;;5072086;28;20021;-40
2024/01/10 01:52:42;;;;;;;11.45;1.88;;;;;;;;;;5070194;28;20051;-41
2024/01/10 01:55:09;;;;;;;7.75;1.30;;;;;;;;;;5065564;28;20046;-41
2024/01/10 01:57:36;;;;;;;19.02;2.10;;;;;;;;;;5063078;28;20065;-40
2024/01/10 02:00:04;;;;;;;14.02;1.80;;;;;;;;;;5069579;28;20078;-40
2024/01/10 02:02:32;;;;;;;12.73;1.23;;;;;;;;;;5072262;28;20028;-40
2024/01/10 02:04:59;;;;;;;9.68;1.20;;;;;;;;;;5070483;28;20035;-39
2024/01/10 02:07:26;;;;;;;6.85;1.10;;;;;;;;;;5064004;28;20021;-39
2024/01/10 02:09:54;;;;;;;5.32;1.08;;;;;;;;;;5070361;28;20086;-40
2024/01/10 02:12:21;;;;;;;4.93;1.20;;;;;;;;;;5064053;28;20043;-42
2024/01/10 02:14:48;;;;;;;5.38;1.02;;;;;;;;;;5064147;28;20401;-43
2024/01/10 02:17:15;;;;;;;6.95;1.38;;;;;;;;;;5051842;28;20106;-45
2024/01/10 02:19:42;;;;;;;7.93;1.55;;;;;;;;;;5053151;28;20061;-44
2024/01/10 02:22:11;;;;;;;9.77;1.58;;;;;;;;;;5059443;28;20102;-42
2024/01/10 02:24:37;;;;;;;12.73;1.33;;;;;;;;;;5064413;28;20049;-46
2024/01/10 02:27:05;;;;;;;24.55;1.83;;;;;;;;;;5057015;28;20028;-43
2024/01/10 02:29:32;;;;;;;14.40;1.42;;;;;;;;;;5058497;28;20112;-43
2024/01/10 02:31:59;;;;;;;15.32;1.00;;;;;;;;;;5069451;28;20394;-45
2024/01/10 02:34:25;;;;;;;16.17;1.40;;;;;;;;;;5071913;28;20041;-43
2024/01/10 02:36:52;;;;;;;10.50;1.48;;;;;;;;;;5070653;28;20122;-47
2024/01/10 02:39:19;;;;;;;13.32;1.20;;;;;;;;;;5068275;28;20025;-43
2024/01/10 02:41:46;;;;;;;8.85;1.45;;;;;;;;;;5068054;28;20387;-43
2024/01/10 02:44:14;;;;;;;8.18;1.30;;;;;;;;;;5060937;28;20036;-44
2024/01/10 02:46:41;;;;;;;16.10;1.63;;;;;;;;;;5071345;28;20055;-44
2024/01/10 02:49:08;;;;;;;7.22;1.23;;;;;;;;;;5071487;28;20387;-43
2024/01/10 02:51:35;;;;;;;6.57;1.30;;;;;;;;;;5071567;28;20048;-44
2024/01/10 02:54:02;;;;;;;9.35;1.20;;;;;;;;;;5070581;28;20375;-42
2024/01/10 02:56:29;;;;;;;9.10;1.40;;;;;;;;;;5070184;28;20064;-41
2024/01/10 02:58:56;;;;;;;7.97;1.23;;;;;;;;;;5070491;28;20031;-41
2024/01/10 03:01:23;;;;;;;11.25;1.48;;;;;;;;;;5068678;28;20020;-41
2024/01/10 03:03:50;;;;;;;13.73;1.20;;;;;;;;;;5069802;28;20581;-41
2024/01/10 03:06:17;;;;;;;6.68;1.30;;;;;;;;;;5070821;28;20398;-41
2024/01/10 03:08:44;;;;;;;8.55;1.30;;;;;;;;;;5070404;28;20038;-42
2024/01/10 03:11:11;;;;;;;9.57;1.30;;;;;;;;;;5071260;28;20028;-41
2024/01/10 03:13:39;;;;;;;4.10;0.82;;;;;;;;;;5071502;28;20039;-41
2024/01/10 03:16:06;;;;;;;10.40;0.98;;;;;;;;;;5067701;28;20033;-42
2024/01/10 03:18:33;;;;;;;4.32;1.02;;;;;;;;;;5069418;28;20390;-44
2024/01/10 03:20:59;;;;;;;6.63;1.20;;;;;;;;;;5068307;28;20398;-44
2024/01/10 03:23:27;;;;;;;4.55;0.80;;;;;;;;;;5069312;28;20383;-42
2024/01/10 03:25:54;;;;;;;9.23;1.00;;;;;;;;;;5069824;28;20539;-42
2024/01/10 03:28:21;;;;;;;2.83;0.90;;;;;;;;;;5070900;28;20048;-45
2024/01/10 03:30:48;;;;;;;3.78;0.70;;;;;;;;;;5070936;28;20110;-47
2024/01/10 03:33:15;;;;;;;2.08;0.60;;;;;;;;;;5069898;28;20036;-48
2024/01/10 03:35:42;;;;;;;6.55;1.10;;;;;;;;;;5071294;28;20028;-44
2024/01/10 03:38:09;;;;;;;4.88;1.05;;;;;;;;;;5071242;28;20017;-42
2024/01/10 03:40:37;;;;;;;3.58;0.60;;;;;;;;;;5069684;28;20071;-42
2024/01/10 03:43:04;;;;;;;11.05;0.82;;;;;;;;;;5071201;28;20051;-41
2024/01/10 03:45:31;;;;;;;4.13;0.70;;;;;;;;;;5071321;28;20486;-42
2024/01/10 03:47:58;;;;;;;3.88;0.68;;;;;;;;;;5071179;28;20086;-45
2024/01/10 03:50:25;;;;;;;5.18;0.73;;;;;;;;;;5071208;28;20025;-42
2024/01/10 03:52:52;;;;;;;2.30;0.60;;;;;;;;;;5071072;28;20111;-40
2024/01/10 03:55:19;;;;;;;2.38;0.60;;;;;;;;;;5071124;28;20036;-39
2024/01/10 03:57:46;;;;;;;6.22;0.70;;;;;;;;;;5071030;28;20029;-43
2024/01/10 04:00:13;;;;;;;7.40;1.33;;;;;;;;;;5071111;28;20020;-46
2024/01/10 04:02:40;;;;;;;1.60;0.70;;;;;;;;;;5073177;28;20056;-41
2024/01/10 04:05:09;;;;;;;1.13;0.63;;;;;;;;;;5074966;28;20021;-42
2024/01/10 04:07:37;;;;;;;2.20;0.60;;;;;;;;;;5074702;28;20386;-41
2024/01/10 04:10:04;;;;;;;2.97;0.50;;;;;;;;;;5074592;28;20032;-42
2024/01/10 04:12:31;;;;;;;3.17;0.70;;;;;;;;;;5074615;28;20098;-44
2024/01/10 04:14:58;;;;;;;3.97;0.60;;;;;;;;;;5074606;28;20050;-40
2024/01/10 04:17:25;;;;;;;2.95;0.77;;;;;;;;;;5074463;28;20041;-44
2024/01/10 04:19:52;;;;;;;6.75;0.77;;;;;;;;;;5074561;28;20056;-46
2024/01/10 04:22:19;;;;;;;1.90;0.88;;;;;;;;;;5074405;28;20021;-46
2024/01/10 04:24:46;;;;;;;1.98;0.60;;;;;;;;;;5074285;28;20085;-44
2024/01/10 04:27:13;;;;;;;2.92;0.40;;;;;;;;;;5074394;28;20040;-42
2024/01/10 04:29:40;;;;;;;2.67;0.73;;;;;;;;;;5074298;28;20074;-41
2024/01/10 04:32:07;;;;;;;1.77;0.60;;;;;;;;;;5074258;28;20449;-42
2024/01/10 04:34:34;;;;;;;2.47;0.70;;;;;;;;;;5074266;28;20383;-44
2024/01/10 04:37:01;;;;;;;1.83;0.68;;;;;;;;;;5074260;28;20020;-43
2024/01/10 04:39:29;;;;;;;3.45;0.50;;;;;;;;;;5074028;28;20505;-41
2024/01/10 04:41:56;;;;;;;2.20;0.60;;;;;;;;;;5074188;28;20043;-43
2024/01/10 04:44:23;;;;;;;1.15;0.60;;;;;;;;;;5074047;28;20032;-42
2024/01/10 04:46:50;;;;;;;4.00;0.70;;;;;;;;;;5074031;28;20073;-43
2024/01/10 04:49:17;;;;;;;1.77;0.63;;;;;;;;;;5073965;28;20394;-42
2024/01/10 04:51:45;;;;;;;3.20;0.80;;;;;;;;;;5073956;28;20039;-47
2024/01/10 04:54:11;;;;;;;4.60;0.90;;;;;;;;;;5073910;28;20041;-42
2024/01/10 04:56:38;;;;;;;6.90;0.70;;;;;;;;;;5074012;28;20025;-46
2024/01/10 04:59:06;;;;;;;0.98;0.52;;;;;;;;;;5073583;28;20082;-40
2024/01/10 05:01:33;;;;;;;3.13;0.43;;;;;;;;;;5073778;28;20481;-43
2024/01/10 05:04:00;;;;;;;2.80;0.60;;;;;;;;;;5073627;28;20028;-42
2024/01/10 05:06:27;;;;;;;2.35;0.70;;;;;;;;;;5073651;28;20048;-45
2024/01/10 05:08:57;;;;;;;1.23;0.50;;;;;;;;;;5073653;28;20029;-41
2024/01/10 05:11:28;;;;;;;1.50;0.43;;;;;;;;;;5073492;28;20032;-42
2024/01/10 05:13:55;;;;;;;1.60;0.35;;;;;;;;;;5073464;28;20371;-43
2024/01/10 05:16:22;;;;;;;3.17;0.65;;;;;;;;;;5073566;28;20024;-42
2024/01/10 05:18:49;;;;;;;1.25;0.60;;;;;;;;;;5073474;28;20099;-43
2024/01/10 05:21:16;;;;;;;1.33;0.70;;;;;;;;;;5073339;28;20058;-42
2024/01/10 05:23:43;;;;;;;1.48;0.60;;;;;;;;;;5071952;28;20517;-42
2024/01/10 05:26:10;;;;;;;1.30;0.52;;;;;;;;;;5073106;28;20133;-41
2024/01/10 05:28:37;;;;;;;1.52;0.70;;;;;;;;;;5073230;28;20584;-40
2024/01/10 05:31:05;;;;;;;1.80;0.70;;;;;;;;;;5073199;28;20113;-42
2024/01/10 05:33:32;;;;;;;1.58;0.60;;;;;;;;;;5073452;28;20363;-41
2024/01/10 05:35:59;;;;;;;2.25;0.75;;;;;;;;;;5073116;28;20056;-40
2024/01/10 05:38:26;;;;;;;1.25;0.70;;;;;;;;;;5071604;28;20693;-42
2024/01/10 05:40:52;;;;;;;4.65;0.80;;;;;;;;;;5072991;28;20048;-40
2024/01/10 05:43:19;;;;;;;4.93;1.00;;;;;;;;;;5072885;28;20505;-41
2024/01/10 05:45:46;;;;;;;2.00;1.08;;;;;;;;;;5072854;28;20025;-41
2024/01/10 05:48:13;;;;;;;2.78;0.80;;;;;;;;;;5072927;28;20108;-42
2024/01/10 05:50:40;;;;;;;3.72;0.98;;;;;;;;;;5071182;28;20123;-45
2024/01/10 05:53:08;;;;;;;6.82;1.10;;;;;;;;;;5072743;28;20553;-44
2024/01/10 05:55:36;;;;;;;5.00;0.93;;;;;;;;;;5072679;28;20075;-42
2024/01/10 05:58:03;;;;;;;2.20;0.90;;;;;;;;;;5072593;28;20402;-40
2024/01/10 06:00:31;;;;;;;2.25;0.80;;;;;;;;;;5072691;28;20024;-41
2024/01/10 06:02:57;;;;;;;2.08;0.93;;;;;;;;;;5087822;28;20482;-45
2024/01/10 06:05:24;;;;;;;2.30;1.02;;;;;;;;;;5092828;28;20519;-39
2024/01/10 06:07:51;;;;;;;3.75;0.80;;;;;;;;;;5092662;28;20071;-43
2024/01/10 06:10:18;;;;;;;2.08;0.73;;;;;;;;;;5092897;28;20066;-39
2024/01/10 06:12:45;;;;;;;4.68;0.90;;;;;;;;;;5092688;28;20486;-41
2024/01/10 06:15:12;;;;;;;2.85;1.00;;;;;;;;;;5092341;28;20062;-41
2024/01/10 06:17:39;;;;;;;3.67;0.85;;;;;;;;;;5092543;28;20103;-45
2024/01/10 06:20:07;;;;;;;1.38;0.98;;;;;;;;;;5092406;28;20032;-44
2024/01/10 06:22:34;;;;;;;3.22;0.75;;;;;;;;;;5092464;28;20481;-47
2024/01/10 06:25:01;;;;;;;2.25;0.70;;;;;;;;;;5091662;28;20587;-40
2024/01/10 06:27:28;;;;;;;3.88;0.70;;;;;;;;;;5092324;28;20084;-42
2024/01/10 06:29:55;;;;;;;2.65;0.80;;;;;;;;;;5092301;28;20048;-43
2024/01/10 06:32:22;;;;;;;2.75;0.82;;;;;;;;;;5092325;28;20386;-43
2024/01/10 06:34:49;;;;;;;3.15;0.90;;;;;;;;;;5092313;28;20035;-44
2024/01/10 06:37:16;;;;;;;3.75;0.90;;;;;;;;;;5092321;28;20460;-41
2024/01/10 06:39:43;;;;;;;2.53;1.08;;;;;;;;;;5092181;28;20028;-39
2024/01/10 06:42:11;;;;;;;1.80;1.13;;;;;;;;;;5092122;28;20111;-42
2024/01/10 06:44:38;;;;;;;1.60;0.77;;;;;;;;;;5091928;28;20127;-41
2024/01/10 06:47:06;;;;;;;2.50;0.77;;;;;;;;;;5092081;28;20039;-43
2024/01/10 06:49:33;;;;;;;1.73;0.75;;;;;;;;;;5091968;28;20056;-40
2024/01/10 06:52:00;;;;;;;3.97;0.90;;;;;;;;;;5092049;28;20388;-42
2024/01/10 06:54:27;;;;;;;4.00;0.80;;;;;;;;;;5091992;28;20492;-43
2024/01/10 06:56:54;;;;;;;5.32;1.20;;;;;;;;;;5092040;28;20028;-43
2024/01/10 06:59:21;;;;;;;5.25;1.00;;;;;;;;;;5091904;28;20035;-44
2024/01/10 07:01:52;;;;;;;4.88;1.02;;;;;;;;;;5091886;28;20073;-43
2024/01/10 07:04:22;;;;;;;18.25;1.20;;;;;;;;;;5091742;28;20058;-43
2024/01/10 07:06:50;;;;;;;5.53;1.15;;;;;;;;;;5091662;28;20032;-47
2024/01/10 07:09:19;;;;;;;6.00;1.30;;;;;;;;;;5091587;28;20063;-43
2024/01/10 07:11:50;;;;;;;3.83;1.08;;;;;;;;;;5091707;28;20071;-42
2024/01/10 07:14:17;;;;;;;10.02;1.40;;;;;;;;;;5091753;28;20067;-44
2024/01/10 07:16:45;;;;;;;9.80;1.88;;;;;;;;;;5091655;28;20028;-44
2024/01/10 07:19:15;;;;;;;8.30;1.40;;;;;;;;;;5091410;28;20039;-42
2024/01/10 07:21:43;;;;;;;11.27;1.40;;;;;;;;;;5091611;28;20024;-42
2024/01/10 07:24:10;;;;;;;8.75;1.92;;;;;;;;;;5091408;28;20050;-39
2024/01/10 07:26:37;;;;;;;5.65;1.80;;;;;;;;;;5091382;28;20052;-41
2024/01/10 07:29:08;;;;;;;9.23;1.50;;;;;;;;;;5091512;28;20024;-41
2024/01/10 07:31:35;;;;;;;4.65;1.48;;;;;;;;;;5091293;28;20016;-41
2024/01/10 07:34:05;;;;;;;10.00;1.88;;;;;;;;;;5091547;28;20035;-43
2024/01/10 07:36:36;;;;;;;10.88;2.05;;;;;;;;;;5091929;28;20481;-42
2024/01/10 07:39:03;;;;;;;8.32;1.73;;;;;;;;;;5095526;28;20031;-44
2024/01/10 07:41:30;;;;;;;7.45;1.85;;;;;;;;;;5095495;28;20036;-43
2024/01/10 07:43:57;;;;;;;7.82;1.55;;;;;;;;;;5095308;28;20043;-40
2024/01/10 07:46:24;;;;;;;6.72;1.65;;;;;;;;;;5095468;28;20390;-45
2024/01/10 07:48:51;;;;;;;10.75;1.83;;;;;;;;;;5095307;28;20035;-41
2024/01/10 07:51:18;;;;;;;7.70;1.88;;;;;;;;;;5095392;28;20036;-41
2024/01/10 07:53:46;;;;;;;7.40;1.80;;;;;;;;;;5095380;28;20036;-42
2024/01/10 07:56:13;;;;;;;12.65;1.92;;;;;;;;;;5095210;28;20505;-46
2024/01/10 07:58:40;;;;;;;11.65;2.10;;;;;;;;;;5095064;28;20031;-45
2024/01/10 08:01:10;;;;;;;7.55;2.08;;;;;;;;;;5095231;28;20543;-40
2024/01/10 08:03:37;;;;;;;10.07;1.65;;;;;;;;;;5088952;28;20045;-40
2024/01/10 08:06:04;;;;;;;10.50;2.60;;;;;;;;;;5074627;28;20478;-40
2024/01/10 08:08:31;;;;;;;11.00;2.25;;;;;;;;;;5074741;28;20035;-42
2024/01/10 08:10:58;;;;;;;13.90;2.78;;;;;;;;;;5074546;28;20024;-40
2024/01/10 08:13:26;;;;;;;10.48;2.47;;;;;;;;;;5074701;28;20034;-40
2024/01/10 08:15:53;;;;;;;10.70;2.53;;;;;;;;;;5074585;28;20020;-42
2024/01/10 08:18:20;;;;;;;12.07;2.83;;;;;;;;;;5074593;28;20040;-40
2024/01/10 08:20:47;;;;;;;13.70;3.22;;;;;;;;;;5074511;28;20518;-40
2024/01/10 08:23:14;;;;;;;13.32;3.17;;;;;;;;;;5074470;28;20032;-40
2024/01/10 08:25:43;;;;;;;11.18;2.53;;;;;;;;;;5074338;28;20044;-41
2024/01/10 08:28:11;;;;;;;12.65;2.88;;;;;;;;;;5074228;28;20112;-43
2024/01/10 08:30:38;;;;;;;14.07;3.63;;;;;;;;;;5074066;28;20494;-41
2024/01/10 08:33:05;;;;;;;11.98;2.78;;;;;;;;;;5074325;28;20032;-41
2024/01/10 08:35:32;;;;;;;10.77;2.80;;;;;;;;;;5074314;28;20096;-40
2024/01/10 08:37:59;;;;;;;9.40;2.83;;;;;;;;;;5074229;28;20528;-40
2024/01/10 08:40:27;;;;;;;11.85;2.88;;;;;;;;;;5074207;28;20029;-41
2024/01/10 08:42:54;;;;;;;11.60;3.03;;;;;;;;;;5073952;28;20561;-40
2024/01/10 08:45:21;;;;;;;12.63;3.20;;;;;;;;;;5074150;28;20063;-40
2024/01/10 08:47:48;;;;;;;17.80;2.67;;;;;;;;;;5073494;28;20424;-40
2024/01/10 08:50:14;;;;;;;14.25;3.60;;;;;;;;;;5074030;28;20032;-40
2024/01/10 08:52:41;;;;;;;14.52;3.50;;;;;;;;;;5074024;28;20028;-40
2024/01/10 08:55:09;;;;;;;13.80;3.17;;;;;;;;;;5073941;28;20382;-40
2024/01/10 08:57:36;;;;;;;19.13;3.60;;;;;;;;;;5073944;28;20113;-41
2024/01/10 09:00:06;;;;;;;10.82;3.28;;;;;;;;;;5073605;28;20029;-40
2024/01/10 09:02:33;;;;;;;15.48;3.10;;;;;;;;;;5073669;28;20154;-42
2024/01/10 09:05:00;;;;;;;11.73;3.28;;;;;;;;;;5073704;28;20542;-40
2024/01/10 09:07:27;;;;;;;12.00;3.42;;;;;;;;;;5073696;28;20154;-42
2024/01/10 09:09:54;;;;;;;13.25;3.15;;;;;;;;;;5073598;28;20039;-40
2024/01/10 09:12:21;;;;;;;12.75;3.67;;;;;;;;;;5073559;28;20101;-40
2024/01/10 09:14:48;;;;;;;11.60;2.92;;;;;;;;;;5072256;28;20382;-40
2024/01/10 09:17:15;;;;;;;16.08;3.63;;;;;;;;;;5073591;28;20055;-40
2024/01/10 09:19:42;;;;;;;14.00;3.70;;;;;;;;;;5073280;28;20036;-40
2024/01/10 09:22:09;;;;;;;13.27;2.75;;;;;;;;;;5073465;28;20036;-40
2024/01/10 09:24:36;;;;;;;13.63;3.30;;;;;;;;;;5073103;28;20517;-40
2024/01/10 09:27:03;;;;;;;19.48;3.22;;;;;;;;;;5073393;28;20047;-40
2024/01/10 09:29:31;;;;;;;14.38;3.00;;;;;;;;;;5073260;28;20497;-40
2024/01/10 09:31:58;;;;;;;15.13;3.63;;;;;;;;;;5073136;28;20028;-40
2024/01/10 09:34:25;;;;;;;13.88;3.60;;;;;;;;;;5073201;28;20036;-40
2024/01/10 09:36:52;;;;;;;12.90;3.50;;;;;;;;;;5073161;28;20032;-41
2024/01/10 09:39:19;;;;;;;20.17;3.83;;;;;;;;;;5073031;28;20032;-40
2024/01/10 09:41:50;;;;;;;13.43;3.50;;;;;;;;;;5073101;28;20036;-40
2024/01/10 09:44:21;;;;;;;12.05;3.22;;;;;;;;;;5072915;28;20050;-40
2024/01/10 09:46:55;;;;;;;19.30;4.38;;;;;;;;;;5072916;28;20024;-40
2024/01/10 09:49:23;;;;;;;14.32;3.45;;;;;;;;;;5072825;28;20056;-40
2024/01/10 09:51:50;;;;;;;14.80;3.47;;;;;;;;;;5072713;28;20514;-40
2024/01/10 09:54:19;;;;;;;17.50;4.55;;;;;;;;;;5072849;28;20056;-40
2024/01/10 09:56:46;;;;;;;14.20;3.35;;;;;;;;;;5072634;28;20033;-42
2024/01/10 09:59:13;;;;;;;13.40;3.28;;;;;;;;;;5071855;28;20078;-40
2024/01/10 10:01:41;;;;;;;15.88;3.42;;;;;;;;;;5072589;28;20041;-40
2024/01/10 10:04:08;;;;;;;17.10;4.03;;;;;;;;;;5072425;28;20037;-40
2024/01/10 10:06:35;;;;;;;16.13;3.67;;;;;;;;;;5072580;28;20028;-40
2024/01/10 10:09:03;;;;;;;18.17;4.47;;;;;;;;;;5072376;28;20021;-40
2024/01/10 10:11:31;;;;;;;18.92;3.95;;;;;;;;;;5072255;28;20033;-42
2024/01/10 10:14:14;;;;;;;27.02;4.90;;;;;;;;;;5072393;28;20029;-41
2024/01/10 10:16:41;;;;;;;19.45;4.50;;;;;;;;;;5072269;28;20032;-40
2024/01/10 10:19:09;;;;;;;14.98;3.95;;;;;;;;;;5072237;28;20069;-40
2024/01/10 10:21:36;;;;;;;18.77;3.70;;;;;;;;;;5070887;28;20032;-40
2024/01/10 10:24:08;;;;;;;19.55;4.47;;;;;;;;;;5072154;28;20431;-40
2024/01/10 10:26:36;;;;;;;15.07;3.95;;;;;;;;;;5071561;28;20052;-40
2024/01/10 10:29:03;;;;;;;19.95;4.38;;;;;;;;;;5071899;28;20554;-40
2024/01/10 10:31:32;;;;;;;16.48;4.13;;;;;;;;;;5071356;28;20090;-40
2024/01/10 10:34:02;;;;;;;14.52;3.75;;;;;;;;;;5071182;28;20036;-40
2024/01/10 10:36:31;;;;;;;24.85;4.85;;;;;;;;;;5071750;28;20039;-40
2024/01/10 10:39:03;;;;;;;38.90;6.03;;;;;;;;;;5071233;28;20363;-40
2024/01/10 10:41:29;;;;;;;;;;;;;;;;;;5072341;28;20031;-40
2024/01/10 10:43:56;;;;;;;20.38;4.63;;;;;;;;;;5071688;28;19923;-41
2024/01/10 10:46:24;;;;;;;26.13;4.60;;;;;;;;;;5071680;28;20032;-42
2024/01/10 10:48:51;;;;;;;21.85;4.43;;;;;;;;;;5071695;28;20025;-40
2024/01/10 10:51:28;;;;;;;14.35;3.67;;;;;;;;;;5071870;28;20024;-41
2024/01/10 10:53:56;;;;;;;17.50;3.63;;;;;;;;;;5071871;28;20616;-43
2024/01/10 10:56:24;;;;;;;18.13;4.60;;;;;;;;;;5069654;28;20482;-40
2024/01/10 10:58:51;;;;;;;22.13;3.80;;;;;;;;;;5071627;28;20029;-42
2024/01/10 11:01:19;;;;;;;18.25;4.57;;;;;;;;;;5071663;28;20032;-40
2024/01/10 11:03:47;;;;;;;13.88;3.08;;;;;;;;;;5071496;28;20115;-39
2024/01/10 11:06:14;;;;;;;14.52;3.22;;;;;;;;;;5071573;28;20543;-40
2024/01/10 11:08:43;;;;;;;16.15;3.53;;;;;;;;;;5070910;28;20471;-40
2024/01/10 11:11:20;;;;;;;19.98;3.03;;;;;;;;;;5070675;28;20043;-40
2024/01/10 11:14:01;;;;;;;22.58;3.97;;;;;;;;;;5093039;28;20371;-40
2024/01/10 11:16:28;;;;;;;18.52;4.15;;;;;;;;;;5068998;28;20032;-39
2024/01/10 11:19:04;;;;;;;74.28;8.88;;;;;;;;;;5071004;28;20033;-38
2024/01/10 11:21:44;;;;;;;335.05;18.10;;;;;;;;;;5060810;28;20024;-36
2024/01/10 11:24:11;;;;;;;50.55;5.70;;;;;;;;;;5066429;28;20041;-43
2024/01/10 11:26:40;;;;;;;34.67;4.55;;;;;;;;;;5069598;28;20053;-43
2024/01/10 11:29:07;;;;;;;373.83;32.40;;;;;;;;;;5068693;28;20032;-40
2024/01/10 11:31:34;;;;;;;181.23;17.80;;;;;;;;;;5070541;28;20025;-40
2024/01/10 11:34:02;;;;;;;75.78;7.57;;;;;;;;;;5070226;28;20028;-41
2024/01/10 11:36:29;;;;;;;60.45;6.32;;;;;;;;;;5069755;28;20029;-42
2024/01/10 11:38:56;;;;;;;28.33;4.05;;;;;;;;;;5068693;28;20098;-42
2024/01/10 11:41:23;;;;;;;28.45;4.25;;;;;;;;;;5070219;28;20043;-38
2024/01/10 11:44:08;;;;;;;20.83;3.60;;;;;;;;;;5068840;28;20464;-39
2024/01/10 11:46:36;;;;;;;29.88;5.30;;;;;;;;;;5069562;28;20024;-37
2024/01/10 11:49:03;;;;;;;49.38;5.93;;;;;;;;;;5070752;28;20029;-39
2024/01/10 11:51:30;;;;;;;50.60;7.50;;;;;;;;;;5067086;28;20078;-38
2024/01/10 11:53:57;;;;;;;63.10;8.32;;;;;;;;;;5068656;28;20028;-39
2024/01/10 11:56:38;;;;;;;53.88;6.65;;;;;;;;;;5070192;28;20040;-38
2024/01/10 11:59:10;;;;;;;58.88;7.88;;;;;;;;;;5070243;28;20025;-39
2024/01/10 12:01:38;;;;;;;103.30;10.85;;;;;;;;;;5068169;28;20094;-38
2024/01/10 12:04:05;;;;;;;69.68;8.63;;;;;;;;;;5070419;28;20500;-40
2024/01/10 12:06:33;;;;;;;54.28;6.68;;;;;;;;;;5070129;28;20025;-38
2024/01/10 12:09:04;;;;;;;31.45;5.25;;;;;;;;;;5067896;28;20119;-38
2024/01/10 12:11:31;;;;;;;26.25;4.15;;;;;;;;;;5065476;28;20111;-38
2024/01/10 12:13:59;;;;;;;18.67;3.97;;;;;;;;;;5070420;28;20028;-38
2024/01/10 12:16:25;;;;;;;29.85;3.97;;;;;;;;;;5070142;28;20036;-40
2024/01/10 12:18:52;;;;;;;17.73;3.45;;;;;;;;;;5068708;28;20374;-40
2024/01/10 12:21:19;;;;;;;18.83;3.53;;;;;;;;;;5068684;28;20112;-38
2024/01/10 12:23:47;;;;;;;23.27;4.15;;;;;;;;;;5071871;28;20553;-38
2024/01/10 12:26:14;;;;;;;33.38;4.22;;;;;;;;;;5061165;28;20147;-38
2024/01/10 12:28:55;;;;;;;24.00;4.18;;;;;;;;;;5073531;28;20080;-39
2024/01/10 12:31:23;;;;;;;22.27;4.32;;;;;;;;;;5073260;28;20032;-41
2024/01/10 12:33:50;;;;;;;27.55;4.47;;;;;;;;;;5071348;28;20031;-44
2024/01/10 12:36:18;;;;;;;19.67;3.47;;;;;;;;;;5071371;28;20112;-39
2024/01/10 12:38:45;;;;;;;18.95;3.90;;;;;;;;;;5070636;28;20031;-41
2024/01/10 12:41:12;;;;;;;23.05;4.38;;;;;;;;;;5070869;28;20048;-39
2024/01/10 12:43:40;;;;;;;28.60;4.57;;;;;;;;;;5061754;28;20029;-39
2024/01/10 12:46:13;;;;;;;26.88;4.47;;;;;;;;;;5054061;28;20029;-39
2024/01/10 12:48:41;;;;;;;28.83;3.55;;;;;;;;;;5054031;28;20394;-39
2024/01/10 12:51:09;;;;;;;34.63;4.60;;;;;;;;;;5053919;28;20843;-40
2024/01/10 12:53:37;;;;;;;56.97;6.47;;;;;;;;;;5053970;28;20446;-39
2024/01/10 12:56:04;;;;;;;47.70;5.50;;;;;;;;;;5053976;28;20097;-39
2024/01/10 12:58:32;;;;;;;32.03;4.47;;;;;;;;;;5053890;28;20021;-39
2024/01/10 13:00:59;;;;;;;36.90;5.45;;;;;;;;;;5053813;28;20033;-39
2024/01/10 13:03:26;;;;;;;27.35;3.97;;;;;;;;;;5053821;28;20399;-39
2024/01/10 13:05:54;;;;;;;24.17;3.08;;;;;;;;;;5053801;28;20029;-39
2024/01/10 13:08:20;;;;;;;19.17;3.42;;;;;;;;;;5053592;28;20471;-39
2024/01/10 13:10:48;;;;;;;51.83;4.85;;;;;;;;;;5053702;28;20021;-39
2024/01/10 13:13:17;;;;;;;52.80;5.47;;;;;;;;;;5053719;28;20028;-39
2024/01/10 13:15:47;;;;;;;47.90;4.80;;;;;;;;;;5053598;28;20063;-39
2024/01/10 13:18:15;;;;;;;25.83;3.80;;;;;;;;;;5053362;28;20032;-39
2024/01/10 13:20:45;;;;;;;26.42;3.80;;;;;;;;;;5053589;28;20045;-40
2024/01/10 13:23:12;;;;;;;20.38;3.83;;;;;;;;;;5053371;28;20437;-39
2024/01/10 13:25:39;;;;;;;17.38;3.40;;;;;;;;;;5053058;28;20106;-40
2024/01/10 13:28:06;;;;;;;22.90;3.50;;;;;;;;;;5053395;28;20033;-40
2024/01/10 13:30:33;;;;;;;17.80;3.20;;;;;;;;;;5053489;28;20059;-40
2024/01/10 13:33:00;;;;;;;24.60;3.70;;;;;;;;;;5052083;28;20435;-40
2024/01/10 13:35:27;;;;;;;16.70;3.50;;;;;;;;;;5053285;28;20067;-41
2024/01/10 13:37:54;;;;;;;16.20;3.05;;;;;;;;;;5053285;28;20029;-40
2024/01/10 13:40:24;;;;;;;18.15;3.33;;;;;;;;;;5053101;28;20171;-41
2024/01/10 13:42:51;;;;;;;14.63;2.40;;;;;;;;;;5052981;28;20112;-40
2024/01/10 13:45:18;;;;;;;23.42;3.22;;;;;;;;;;5053090;28;20163;-41
2024/01/10 13:47:45;;;;;;;14.20;2.63;;;;;;;;;;5053039;28;20024;-40
2024/01/10 13:50:12;;;;;;;10.43;2.22;;;;;;;;;;5053008;28;20036;-40
2024/01/10 13:52:39;;;;;;;30.38;3.22;;;;;;;;;;5052962;28;20033;-41
2024/01/10 13:55:06;;;;;;;28.48;3.22;;;;;;;;;;5052895;28;20501;-40
2024/01/10 13:57:33;;;;;;;18.25;2.72;;;;;;;;;;5052771;28;20033;-40
2024/01/10 14:00:01;;;;;;;15.57;2.67;;;;;;;;;;5056351;28;20033;-41
2024/01/10 14:02:28;;;;;;;12.77;2.20;;;;;;;;;;5052993;28;20515;-42
2024/01/10 14:04:57;;;;;;;19.63;2.35;;;;;;;;;;5052464;28;20436;-41
2024/01/10 14:07:24;;;;;;;13.10;2.65;;;;;;;;;;5052549;28;20029;-40
2024/01/10 14:09:54;;;;;;;23.05;3.05;;;;;;;;;;5052384;28;20490;-42
2024/01/10 14:12:22;;;;;;;30.85;3.22;;;;;;;;;;5052407;28;20037;-41
2024/01/10 14:14:49;;;;;;;27.45;3.97;;;;;;;;;;5052345;28;20039;-41
2024/01/10 14:17:16;;;;;;;38.03;4.20;;;;;;;;;;5054833;28;20082;-41
2024/01/10 14:19:44;;;;;;;37.13;4.15;;;;;;;;;;5060138;28;20036;-42
2024/01/10 14:22:11;;;;;;;23.35;3.28;;;;;;;;;;5065123;28;20098;-41
2024/01/10 14:24:38;;;;;;;18.92;2.47;;;;;;;;;;5070125;28;20039;-42
2024/01/10 14:27:05;;;;;;;15.77;2.67;;;;;;;;;;5068273;28;20045;-44
2024/01/10 14:29:33;;;;;;;19.15;2.80;;;;;;;;;;5069719;28;20482;-41
2024/01/10 14:32:00;;;;;;;22.67;2.83;;;;;;;;;;5069120;28;20036;-41
2024/01/10 14:34:27;;;;;;;21.52;3.33;;;;;;;;;;5067683;28;20024;-43
2024/01/10 14:36:54;;;;;;;18.13;2.85;;;;;;;;;;5070858;28;20021;-41
2024/01/10 14:39:21;;;;;;;21.95;3.85;;;;;;;;;;5071125;28;20040;-41
2024/01/10 14:41:48;;;;;;;19.92;3.28;;;;;;;;;;5070207;28;20094;-41